Airfield :







YOU CAN JOIN US ON...

 
LOGIN :

Register | Disclaimer

   EN    FR    IT 

 









Legend :    VFR   Marginal VFR   IFR   Intensive IFR   Very Intensive IFR
Visi :
Ceiling :
>= 8 km
>= 3000ft
5 to 8 km
1000 to 3000 ft
1500m to 5 km
500 to 1000 ft
800 to 1500m
200 to 500 ft
< 800m
< 200 ft
Symbols :   Thunderstorms  Fog  Heavy snow  Heavy precipitations  Wind > 20 kt






- Airport Elevation : 13 ft
- IATA code : SXM


TNCM - Princess Juliana Int.

CURRENT METAR :
  • 112200Z 05014KT 9999 SCT015TCU 27/21 Q1015 RERA NOSIG RMK SE, S, SW ,W, NW

EXPIRED METARs :
  • 112100Z 05014KT 9999 VCSH SCT013TCU 27/21 Q1015 RERA NOSIG RMK SHRA SE/ S/ SW/ W/ NW
  • 112000Z 06012KT 9999 SCT016TCU 28/21 Q1015 NOSIG RMK SHRA S/ SW
  • 111900Z 05014KT 030V100 9999 SCT016TCU 29/21 Q1015 NOSIG RMK SHRA N, NW, SE, S, SW

TAF TNCM
Valid from the 11 at 21:00 until the 12 at 18:00 UTC


112107Z 1121/1218 06012KT P6SM SCT015 SCT025
FM112200 07010KT P6SM SCT016
FM121400 08014KT P6SM FEW025 SCT050



MET'MAP, your aeronautical weather chart ! - Copyright ORBIFLY December 2007 - Disclaimer

ORBIFLY MET'MAP TEAM :

Programming & Development : Alexandra Zaïnal
Concept & original design : Baudouin d'Aumeries
Assistance for programming : Marc-Olivier Méhu
Technical & hardware support : Manuel Goepfert

Contact : metmap@orbifly.com




SOURCES & CREDITS :

   NOAA